createdAt,value
2022-08-30T00:04:39.140Z,99.90
2022-08-30T00:09:45.089Z,99.90
2022-08-30T00:14:49.718Z,99.90
2022-08-30T00:19:55.836Z,99.90
2022-08-30T00:25:02.115Z,99.90
2022-08-30T00:30:09.221Z,99.90
2022-08-30T00:35:18.470Z,99.90
2022-08-30T00:40:27.652Z,99.90
2022-08-30T00:45:36.205Z,99.90
2022-08-30T00:50:47.025Z,99.90
2022-08-30T00:55:55.119Z,99.90
2022-08-30T01:01:02.589Z,99.90
2022-08-30T01:06:09.118Z,99.90
2022-08-30T01:11:18.508Z,99.90
2022-08-30T01:16:27.327Z,99.90
2022-08-30T01:21:42.557Z,99.90
2022-08-30T01:26:48.529Z,99.90
2022-08-30T01:31:53.485Z,99.90
2022-08-30T01:36:57.962Z,99.90
2022-08-30T01:42:05.868Z,99.90
2022-08-30T01:47:10.351Z,99.90
2022-08-30T01:52:16.210Z,99.90
2022-08-30T01:57:26.890Z,99.90
2022-08-30T02:02:31.785Z,99.90
2022-08-30T02:07:36.379Z,99.90
2022-08-30T02:12:42.650Z,99.90
2022-08-30T02:17:47.115Z,99.90
2022-08-30T02:22:51.527Z,99.90
2022-08-30T02:27:57.163Z,99.90
2022-08-30T02:33:01.573Z,99.90
2022-08-30T02:38:08.080Z,99.90
2022-08-30T02:43:14.073Z,99.90
2022-08-30T02:48:18.402Z,99.90
2022-08-30T02:53:22.940Z,99.90
2022-08-30T02:58:28.713Z,99.90
2022-08-30T03:03:35.596Z,99.90
2022-08-30T03:08:40.157Z,99.90
2022-08-30T03:13:45.825Z,99.90
2022-08-30T03:18:50.443Z,99.90
2022-08-30T03:23:54.683Z,99.90
2022-08-30T03:29:00.515Z,99.90
2022-08-30T03:34:06.423Z,99.90
2022-08-30T03:39:13.969Z,99.90
2022-08-30T03:44:20.025Z,99.90
2022-08-30T03:49:25.172Z,99.90
2022-08-30T03:54:32.531Z,99.90
2022-08-30T03:59:38.459Z,99.90
2022-08-30T04:04:42.794Z,99.90
2022-08-30T04:09:47.531Z,99.90
2022-08-30T04:14:53.510Z,99.90
2022-08-30T04:19:58.248Z,99.90
2022-08-30T04:25:02.527Z,99.90
2022-08-30T04:30:09.803Z,99.90
2022-08-30T04:35:15.192Z,99.90
2022-08-30T04:40:20.421Z,99.90
2022-08-30T04:45:26.543Z,99.90
2022-08-30T04:50:31.201Z,99.90
2022-08-30T04:55:35.644Z,99.90
2022-08-30T05:00:44.602Z,99.90
2022-08-30T05:05:50.152Z,99.90
2022-08-30T05:10:54.815Z,99.90
2022-08-30T05:16:01.322Z,99.90
2022-08-30T05:21:10.926Z,99.90
2022-08-30T05:26:19.139Z,99.90
2022-08-30T05:31:29.195Z,99.90
2022-08-30T05:36:37.814Z,99.90
2022-08-30T05:41:44.287Z,99.90
2022-08-30T05:46:50.207Z,99.90
2022-08-30T05:51:54.995Z,99.90
2022-08-30T05:56:59.407Z,99.90
2022-08-30T06:02:07.392Z,99.90
2022-08-30T06:07:14.861Z,99.90
2022-08-30T06:12:21.849Z,99.90
2022-08-30T06:17:27.755Z,99.90
2022-08-30T06:22:32.094Z,99.90
2022-08-30T06:27:36.393Z,99.90
2022-08-30T06:32:42.567Z,99.90
2022-08-30T06:37:46.927Z,99.90
2022-08-30T06:42:51.564Z,99.90
2022-08-30T06:53:07.904Z,99.90
2022-08-30T06:58:13.748Z,99.90
2022-08-30T07:03:19.521Z,99.90
2022-08-30T07:08:24.884Z,99.90
2022-08-30T07:13:30.241Z,97.80
2022-08-30T07:18:55.739Z,94.60
2022-08-30T07:24:02.289Z,92.80
2022-08-30T07:29:09.260Z,90.50
2022-08-30T07:34:15.145Z,82.90
2022-08-30T07:39:20.138Z,74.90
2022-08-30T07:44:25.686Z,67.90
2022-08-30T07:49:31.863Z,64.20
2022-08-30T07:54:37.657Z,61.70
2022-08-30T07:59:41.930Z,60.00
2022-08-30T08:04:48.569Z,58.80
2022-08-30T08:15:22.196Z,53.20
2022-08-30T08:20:28.143Z,53.50
2022-08-30T08:25:32.862Z,54.30
2022-08-30T08:30:41.593Z,54.70
2022-08-30T08:35:49.803Z,55.50
2022-08-30T08:41:06.403Z,54.60
2022-08-30T08:46:23.018Z,52.70
2022-08-30T08:52:04.451Z,51.40
2022-08-30T08:57:13.930Z,51.30
2022-08-30T09:02:28.530Z,49.20
2022-08-30T09:07:43.813Z,46.70
2022-08-30T09:12:48.346Z,46.60
2022-08-30T09:17:57.400Z,46.40
2022-08-30T09:23:30.632Z,46.20
2022-08-30T09:28:46.167Z,46.00
2022-08-30T09:33:57.944Z,46.40
2022-08-30T09:39:07.927Z,47.20
2022-08-30T09:44:19.668Z,47.80
2022-08-30T09:49:35.200Z,46.10
2022-08-30T09:54:59.117Z,46.30
2022-08-30T10:00:18.726Z,45.20
2022-08-30T10:05:36.222Z,45.50
2022-08-30T10:10:53.937Z,43.70
2022-08-30T10:16:08.681Z,40.90
2022-08-30T10:21:20.316Z,40.30
2022-08-30T10:26:34.411Z,39.60
2022-08-30T10:31:48.409Z,38.70
2022-08-30T10:36:59.601Z,37.10
2022-08-30T10:42:16.404Z,35.90
2022-08-30T10:47:34.590Z,36.10
2022-08-30T10:52:48.547Z,35.80
2022-08-30T10:57:55.082Z,36.30
2022-08-30T11:03:51.540Z,36.10
2022-08-30T11:09:30.818Z,35.70
2022-08-30T11:14:43.303Z,34.10
2022-08-30T11:19:48.631Z,32.90
2022-08-30T11:25:14.273Z,33.30
2022-08-30T11:31:06.644Z,32.30
2022-08-30T11:36:13.091Z,32.30
2022-08-30T11:41:40.857Z,33.30
2022-08-30T11:46:47.743Z,33.00
2022-08-30T11:52:26.934Z,32.80
2022-08-30T11:57:46.903Z,33.40
2022-08-30T12:03:02.047Z,34.60
2022-08-30T12:08:11.048Z,35.80
2022-08-30T12:13:55.499Z,36.30
2022-08-30T12:19:18.767Z,35.90
2022-08-30T12:24:29.355Z,34.70
2022-08-30T12:29:33.789Z,36.30
2022-08-30T12:34:56.300Z,37.00
2022-08-30T12:40:11.694Z,36.90
2022-08-30T12:45:21.983Z,37.80
2022-08-30T12:50:34.882Z,39.00
2022-08-30T12:55:55.861Z,40.10
2022-08-30T13:01:27.285Z,41.20
2022-08-30T13:06:49.337Z,42.60
2022-08-30T13:11:55.238Z,42.70
2022-08-30T13:17:28.691Z,43.70
2022-08-30T13:22:39.279Z,43.30
2022-08-30T13:27:44.211Z,43.20
2022-08-30T13:32:48.545Z,43.60
2022-08-30T13:37:54.274Z,43.90
2022-08-30T13:42:58.982Z,44.00
2022-08-30T13:48:04.196Z,44.50
2022-08-30T13:53:11.172Z,44.50
2022-08-30T13:58:16.691Z,45.00
2022-08-30T14:03:21.200Z,45.80
2022-08-30T14:08:48.156Z,45.50
2022-08-30T14:19:22.410Z,47.50
2022-08-30T14:24:28.348Z,49.10
2022-08-30T14:29:34.003Z,49.80
2022-08-30T14:34:39.702Z,50.90
2022-08-30T14:39:45.898Z,52.10
2022-08-30T14:44:56.645Z,53.30
2022-08-30T14:50:01.909Z,53.50
2022-08-30T14:55:12.734Z,53.70
2022-08-30T15:00:18.354Z,54.10
2022-08-30T15:05:24.399Z,54.30
2022-08-30T15:10:30.509Z,53.80
2022-08-30T15:15:35.495Z,53.40
2022-08-30T15:20:47.624Z,53.30
2022-08-30T15:25:54.400Z,52.40
2022-08-30T15:30:58.946Z,53.00
2022-08-30T15:36:06.108Z,53.80
2022-08-30T15:41:14.017Z,55.50
2022-08-30T15:46:23.520Z,56.00
2022-08-30T15:51:41.463Z,56.20
2022-08-30T15:56:48.226Z,56.40
2022-08-30T16:01:52.951Z,57.50
2022-08-30T16:06:57.446Z,58.10
2022-08-30T16:12:08.388Z,58.80
2022-08-30T16:17:15.165Z,59.70
2022-08-30T16:22:23.344Z,60.80
2022-08-30T16:27:29.203Z,60.70
2022-08-30T16:32:33.599Z,60.90
2022-08-30T16:37:39.183Z,62.10
2022-08-30T16:42:46.173Z,62.40
2022-08-30T16:47:50.925Z,62.40
2022-08-30T16:52:56.834Z,60.70
2022-08-30T16:58:04.511Z,60.30
2022-08-30T17:03:10.565Z,58.60
2022-08-30T17:08:15.314Z,58.70
2022-08-30T17:13:22.745Z,58.60
2022-08-30T17:18:27.652Z,58.70
2022-08-30T17:23:34.368Z,58.80
2022-08-30T17:28:41.696Z,58.40
2022-08-30T17:33:46.356Z,60.20
2022-08-30T17:38:51.182Z,61.40
2022-08-30T17:43:56.932Z,63.50
2022-08-30T17:49:02.029Z,64.70
2022-08-30T17:54:06.939Z,65.70
2022-08-30T17:59:15.426Z,66.20
2022-08-30T18:04:25.041Z,67.90
2022-08-30T18:09:33.870Z,69.50
2022-08-30T18:14:40.370Z,71.80
2022-08-30T18:19:49.397Z,73.40
2022-08-30T18:24:53.784Z,74.30
2022-08-30T18:29:59.477Z,75.10
2022-08-30T18:35:03.793Z,75.20
2022-08-30T18:40:17.005Z,75.70
2022-08-30T18:45:24.507Z,75.50
2022-08-30T18:50:29.576Z,74.00
2022-08-30T18:55:34.016Z,72.90
2022-08-30T19:00:39.933Z,72.20
2022-08-30T19:05:45.021Z,72.00
2022-08-30T19:10:49.820Z,71.50
2022-08-30T19:15:55.937Z,71.20
2022-08-30T19:21:01.080Z,70.80
2022-08-30T19:26:07.353Z,70.00
2022-08-30T19:31:16.784Z,69.70
2022-08-30T19:36:21.592Z,69.20
2022-08-30T19:41:26.157Z,68.70
2022-08-30T19:46:33.102Z,67.70
2022-08-30T19:51:37.865Z,67.10
2022-08-30T19:56:42.664Z,67.90
2022-08-30T20:01:50.208Z,70.50
2022-08-30T20:06:55.140Z,74.10
2022-08-30T20:11:59.590Z,79.40
2022-08-30T20:17:05.938Z,84.70
2022-08-30T20:22:16.557Z,89.60
2022-08-30T20:27:21.153Z,91.00
2022-08-30T20:32:27.843Z,90.80
2022-08-30T20:37:33.329Z,91.20
2022-08-30T20:42:41.471Z,92.50
2022-08-30T20:47:47.306Z,93.40
2022-08-30T20:52:51.687Z,95.50
2022-08-30T20:57:56.407Z,97.40
2022-08-30T21:03:02.366Z,98.10
2022-08-30T21:08:15.500Z,98.90
2022-08-30T21:13:19.971Z,99.10
2022-08-30T21:18:29.538Z,99.10
2022-08-30T21:23:33.922Z,99.10
2022-08-30T21:28:40.124Z,98.90
2022-08-30T21:33:47.669Z,99.00
2022-08-30T21:38:52.648Z,98.70
2022-08-30T21:43:58.428Z,99.90
2022-08-30T21:49:09.619Z,99.90
2022-08-30T21:54:17.063Z,99.90
2022-08-30T21:59:22.676Z,99.90
2022-08-30T22:04:29.466Z,99.90
2022-08-30T22:09:33.934Z,99.90
2022-08-30T22:14:38.721Z,99.90
2022-08-30T22:19:45.049Z,99.90
2022-08-30T22:24:49.925Z,99.90
2022-08-30T22:29:54.379Z,99.90
2022-08-30T22:35:00.075Z,99.90
2022-08-30T22:40:06.829Z,99.90
2022-08-30T22:45:13.242Z,99.90
2022-08-30T22:50:19.544Z,99.90
2022-08-30T22:55:25.081Z,99.90
2022-08-30T23:00:29.508Z,99.90
2022-08-30T23:05:38.636Z,99.90
2022-08-30T23:10:44.409Z,99.90
2022-08-30T23:15:48.752Z,99.90
2022-08-30T23:20:54.637Z,99.90
2022-08-30T23:26:19.544Z,99.90
2022-08-30T23:31:41.768Z,99.90
2022-08-30T23:37:05.267Z,99.90
2022-08-30T23:42:26.790Z,99.90
2022-08-30T23:47:48.713Z,99.90
2022-08-30T23:53:12.112Z,99.90
2022-08-30T23:58:33.951Z,99.90
